Terminal Aerodrome Forecast
Issued by NWS Sterling, VA

Current Version | Previous Version | Text Only | Print | Product List | Glossary Off
Versions: 1 2 3 4 5 6 7 8 9 10 11 12 13 14 15 16 17 18 19 20 21

996
FTUS41 KLWX 201123
TAFIAD
TAF
KIAD 201123Z 2012/2118 VRB03KT P6SM SKC
     FM201400 26010KT P6SM SKC
     FM210500 VRB03KT P6SM SCT070=

USA.gov is the U.S. government's official web portal to all federal, state and local government web resources and services.